Time;durP1;ratioP1;P1;durP2;ratioP2;P2;SDS_P1;SDS_P2;PMS_P1;PMS_P2;Temp;Humidity;BMP_temperature;BMP_pressure;BME280_temperature;BME280_humidity;BME280_pressure;Samples;Min_cycle;Max_cycle;Signal;HPM_P1;HPM_P2
2021/12/23 00:02:21;;;;;;;2.70;2.50;;;19.30;42.10;;;;;;5032282;28;20195;-24
2021/12/23 00:04:46;;;;;;;3.87;2.80;;;19.30;42.10;;;;;;5032716;28;20424;-24
2021/12/23 00:07:12;;;;;;;2.43;2.23;;;19.30;42.10;;;;;;5033646;28;20271;-23
2021/12/23 00:10:04;;;;;;;3.00;2.50;;;19.20;42.20;;;;;;5032456;28;20498;-22
2021/12/23 00:12:30;;;;;;;2.83;2.30;;;19.20;42.10;;;;;;5032091;28;20196;-25
2021/12/23 00:14:56;;;;;;;2.53;2.17;;;19.10;42.10;;;;;;5030482;28;20193;-22
2021/12/23 00:17:28;;;;;;;3.00;2.40;;;19.10;42.20;;;;;;5029952;28;20194;-23
2021/12/23 00:25:16;;;;;;;2.63;2.37;;;19.00;42.30;;;;;;5034495;28;20204;-22
2021/12/23 00:27:42;;;;;;;2.63;2.30;;;19.00;42.40;;;;;;5033180;28;20188;-23
2021/12/23 00:30:08;;;;;;;3.13;2.40;;;18.90;42.40;;;;;;5033555;28;20229;-24
2021/12/23 00:32:34;;;;;;;3.37;2.20;;;18.80;42.40;;;;;;5032638;28;20222;-23
2021/12/23 00:35:00;;;;;;;2.43;2.23;;;18.80;42.50;;;;;;5031848;28;20205;-22
2021/12/23 00:37:25;;;;;;;3.90;2.33;;;18.70;42.40;;;;;;5031212;28;20222;-23
2021/12/23 00:39:52;;;;;;;2.63;2.27;;;18.70;42.50;;;;;;5031866;28;20191;-23
2021/12/23 00:42:18;;;;;;;2.60;2.17;;;18.70;42.50;;;;;;5030519;28;20585;-23
2021/12/23 00:44:47;;;;;;;3.80;2.63;;;18.70;42.50;;;;;;5033617;28;20679;-23
2021/12/23 00:47:14;;;;;;;3.00;2.70;;;18.70;42.50;;;;;;5034189;28;20188;-22
2021/12/23 00:49:40;;;;;;;3.70;2.53;;;18.60;42.40;;;;;;5036740;28;20204;-23
2021/12/23 00:52:08;;;;;;;2.70;2.50;;;18.60;42.50;;;;;;5035915;28;20205;-23
2021/12/23 00:54:34;;;;;;;2.47;2.10;;;18.70;42.50;;;;;;5036631;28;20189;-23
2021/12/23 00:57:00;;;;;;;3.30;2.57;;;18.70;42.40;;;;;;5036850;28;20197;-23
2021/12/23 00:59:26;;;;;;;2.53;2.33;;;18.70;42.40;;;;;;5035007;28;20623;-21
2021/12/23 01:01:52;;;;;;;2.73;2.53;;;18.60;42.40;;;;;;5035764;28;20485;-22
2021/12/23 01:04:17;;;;;;;3.23;2.93;;;18.60;42.30;;;;;;5035305;28;20219;-21
2021/12/23 01:06:43;;;;;;;3.37;2.70;;;18.50;42.30;;;;;;5035701;28;20783;-24
2021/12/23 01:09:10;;;;;;;2.97;2.50;;;18.50;42.40;;;;;;5035830;28;20227;-24
2021/12/23 01:11:36;;;;;;;2.93;2.40;;;18.50;42.50;;;;;;5036667;28;20571;-23
2021/12/23 01:14:25;;;;;;;3.77;2.83;;;18.50;42.40;;;;;;5035233;28;20211;-23
2021/12/23 01:17:00;;;;;;;2.73;2.53;;;18.50;42.20;;;;;;5036530;28;20200;-23
2021/12/23 01:19:26;;;;;;;3.20;2.90;;;18.40;42.30;;;;;;5035590;28;20294;-24
2021/12/23 01:21:52;;;;;;;3.10;2.60;;;18.40;42.40;;;;;;5035165;28;20242;-21
2021/12/23 01:24:18;;;;;;;2.70;2.50;;;18.40;42.40;;;;;;5035836;28;20194;-25
2021/12/23 01:26:44;;;;;;;2.80;2.50;;;18.30;42.40;;;;;;5034389;28;20365;-21
2021/12/23 01:29:10;;;;;;;3.77;2.90;;;18.30;42.50;;;;;;5036616;28;20218;-25
2021/12/23 01:31:38;;;;;;;3.80;2.50;;;18.40;42.40;;;;;;5034978;28;20195;-24
2021/12/23 01:34:05;;;;;;;3.23;2.60;;;18.30;42.40;;;;;;5036565;28;20197;-21
2021/12/23 01:36:31;;;;;;;2.63;2.43;;;18.30;42.50;;;;;;5035296;28;20194;-23
2021/12/23 01:38:57;;;;;;;4.03;2.67;;;18.20;42.50;;;;;;5036621;28;20200;-22
2021/12/23 01:41:24;;;;;;;3.20;2.63;;;18.20;42.50;;;;;;5036139;28;20202;-24
2021/12/23 01:43:51;;;;;;;3.00;2.70;;;18.30;42.60;;;;;;5034316;28;20186;-23
2021/12/23 01:46:18;;;;;;;3.47;2.93;;;18.20;42.50;;;;;;5034288;28;20569;-22
2021/12/23 01:48:45;;;;;;;2.90;2.60;;;18.10;42.60;;;;;;5034140;28;20334;-23
2021/12/23 01:51:11;;;;;;;3.07;2.77;;;18.10;42.60;;;;;;5034335;28;20197;-23
2021/12/23 01:53:37;;;;;;;3.07;2.77;;;18.00;42.60;;;;;;5034471;28;20289;-24
2021/12/23 01:56:03;;;;;;;3.03;2.60;;;18.00;42.70;;;;;;5034909;28;20290;-19
2021/12/23 01:58:29;;;;;;;3.40;3.03;;;17.90;42.70;;;;;;5035340;28;20265;-23
2021/12/23 02:00:54;;;;;;;3.10;2.73;;;17.90;42.70;;;;;;5036071;28;20296;-26
2021/12/23 02:03:21;;;;;;;3.27;2.80;;;17.90;42.70;;;;;;5035727;28;20252;-23
2021/12/23 02:05:47;;;;;;;2.67;2.43;;;17.80;43.10;;;;;;5035496;28;20651;-21
2021/12/23 02:08:12;;;;;;;2.67;2.40;;;17.80;42.80;;;;;;5034863;28;20211;-23
2021/12/23 02:10:40;;;;;;;2.70;2.50;;;17.70;42.80;;;;;;5034662;28;20215;-22
2021/12/23 02:13:06;;;;;;;3.67;3.10;;;17.70;42.80;;;;;;5035319;28;20358;-23
2021/12/23 02:15:31;;;;;;;3.43;2.80;;;17.60;42.80;;;;;;5035242;28;20202;-22
2021/12/23 02:17:58;;;;;;;3.47;3.17;;;17.60;42.80;;;;;;5034283;28;20195;-22
2021/12/23 02:20:28;;;;;;;3.10;2.60;;;17.60;42.90;;;;;;5034235;28;20306;-24
2021/12/23 02:22:54;;;;;;;3.63;3.00;;;17.60;42.90;;;;;;5034852;28;20190;-26
2021/12/23 02:25:20;;;;;;;2.53;2.33;;;17.50;42.90;;;;;;5034829;28;20234;-24
2021/12/23 02:27:47;;;;;;;2.90;2.57;;;17.50;43.00;;;;;;5033415;28;20525;-21
2021/12/23 02:30:17;;;;;;;2.97;2.50;;;17.40;43.00;;;;;;5031996;28;20322;-23
2021/12/23 02:32:43;;;;;;;2.33;2.13;;;17.40;43.10;;;;;;5032725;28;20204;-23
2021/12/23 02:35:13;;;;;;;2.53;2.33;;;17.40;43.10;;;;;;5033758;28;20271;-25
2021/12/23 02:37:41;;;;;;;3.00;2.40;;;17.40;43.20;;;;;;5035114;28;20207;-22
2021/12/23 02:40:08;;;;;;;2.77;2.23;;;17.30;43.20;;;;;;5035162;28;20298;-23
2021/12/23 02:42:34;;;;;;;2.67;2.43;;;17.30;43.20;;;;;;5035978;28;20231;-23
2021/12/23 02:45:01;;;;;;;3.00;2.70;;;17.30;43.30;;;;;;5036748;28;20200;-24
2021/12/23 02:47:27;;;;;;;2.77;2.47;;;17.30;43.40;;;;;;5034772;28;20557;-22
2021/12/23 02:49:53;;;;;;;2.60;2.40;;;17.20;43.40;;;;;;5034226;28;20616;-24
2021/12/23 02:52:18;;;;;;;2.53;2.33;;;17.40;43.40;;;;;;5033041;28;20286;-22
2021/12/23 02:54:54;;;;;;;2.80;2.50;;;17.60;43.10;;;;;;5032297;28;20548;-21
2021/12/23 02:57:20;;;;;;;3.23;2.13;;;17.70;42.90;;;;;;5031429;28;20204;-26
2021/12/23 02:59:46;;;;;;;2.90;2.20;;;17.80;42.80;;;;;;5034806;28;20194;-25
2021/12/23 03:02:11;;;;;;;2.20;2.00;;;17.90;42.70;;;;;;5034592;28;20285;-21
2021/12/23 03:04:37;;;;;;;2.90;2.33;;;17.80;42.60;;;;;;5034863;28;20310;-24
2021/12/23 03:07:03;;;;;;;2.60;2.40;;;17.80;42.60;;;;;;5034201;28;20190;-23
2021/12/23 03:09:28;;;;;;;2.63;2.23;;;17.80;42.70;;;;;;5034096;28;20227;-24
2021/12/23 03:11:54;;;;;;;3.17;2.73;;;17.80;42.60;;;;;;5033052;28;20191;-21
2021/12/23 03:14:20;;;;;;;2.60;2.20;;;17.80;42.70;;;;;;5033949;28;20204;-20
2021/12/23 03:16:46;;;;;;;3.00;2.70;;;17.70;42.70;;;;;;5032277;28;20260;-22
2021/12/23 03:19:12;;;;;;;3.03;2.40;;;17.70;42.80;;;;;;5033481;28;20197;-23
2021/12/23 03:21:38;;;;;;;2.70;2.50;;;17.70;42.80;;;;;;5033742;28;20198;-23
2021/12/23 03:24:04;;;;;;;2.77;2.37;;;17.60;42.70;;;;;;5033400;28;20228;-25
2021/12/23 03:26:30;;;;;;;3.57;2.60;;;17.60;42.80;;;;;;5034283;28;20204;-23
2021/12/23 03:28:56;;;;;;;2.93;2.60;;;17.60;42.90;;;;;;5034018;28;20216;-24
2021/12/23 03:31:22;;;;;;;2.93;2.47;;;17.60;42.90;;;;;;5033924;28;20203;-24
2021/12/23 03:33:48;;;;;;;3.07;2.77;;;17.60;42.90;;;;;;5033405;28;20210;-25
2021/12/23 03:36:13;;;;;;;2.83;2.53;;;17.50;42.90;;;;;;5033604;28;20605;-25
2021/12/23 03:38:39;;;;;;;2.40;2.03;;;17.40;42.90;;;;;;5033671;28;20351;-21
2021/12/23 03:41:05;;;;;;;2.43;2.23;;;17.30;43.00;;;;;;5032260;28;20225;-22
2021/12/23 03:43:30;;;;;;;2.80;2.50;;;17.30;43.10;;;;;;5032987;28;20349;-25
2021/12/23 03:45:57;;;;;;;3.07;2.30;;;17.20;43.20;;;;;;5033524;28;20222;-24
2021/12/23 03:48:23;;;;;;;3.50;2.57;;;17.10;43.30;;;;;;5034820;28;20210;-23
2021/12/23 03:50:49;;;;;;;2.73;2.40;;;17.10;43.50;;;;;;5034307;28;20212;-24
2021/12/23 03:53:17;;;;;;;2.83;2.30;;;17.00;43.40;;;;;;5035321;28;20208;-21
2021/12/23 03:55:42;;;;;;;2.33;2.10;;;16.90;43.50;;;;;;5033844;28;20254;-23
2021/12/23 03:58:08;;;;;;;2.50;2.30;;;16.90;43.50;;;;;;5033314;28;20230;-24
2021/12/23 04:00:35;;;;;;;3.20;2.53;;;16.90;43.50;;;;;;5031161;28;20209;-21
2021/12/23 04:03:01;;;;;;;2.60;2.30;;;16.80;43.50;;;;;;5031684;28;20188;-22
2021/12/23 04:05:27;;;;;;;2.50;2.30;;;16.80;43.60;;;;;;5032267;28;20205;-21
2021/12/23 04:07:52;;;;;;;2.93;2.63;;;17.10;43.70;;;;;;5033053;28;20477;-23
2021/12/23 04:10:21;;;;;;;2.37;2.10;;;19.90;41.80;;;;;;5033420;28;20231;-23
2021/12/23 04:12:47;;;;;;;2.70;2.50;;;20.60;40.10;;;;;;5033818;28;20617;-23
2021/12/23 04:15:13;;;;;;;2.83;2.37;;;20.80;39.50;;;;;;5034883;28;20218;-23
2021/12/23 04:17:39;;;;;;;3.73;2.50;;;21.10;39.30;;;;;;5034038;28;20201;-26
2021/12/23 04:20:16;;;;;;;2.53;2.27;;;21.20;39.10;;;;;;5032957;28;20204;-24
2021/12/23 04:22:43;;;;;;;3.10;2.33;;;21.50;38.80;;;;;;5030869;28;20192;-24
2021/12/23 04:25:10;;;;;;;3.07;2.57;;;21.90;38.50;;;;;;5032836;28;20460;-21
2021/12/23 04:27:35;;;;;;;2.60;2.40;;;22.50;38.20;;;;;;5033194;28;20294;-24
2021/12/23 04:30:03;;;;;;;2.57;2.37;;;22.80;37.80;;;;;;5032883;28;20393;-23
2021/12/23 04:32:28;;;;;;;2.60;2.40;;;23.00;37.50;;;;;;5035830;28;20479;-21
2021/12/23 04:34:54;;;;;;;2.57;2.30;;;23.10;37.50;;;;;;5036372;28;20255;-23
2021/12/23 04:37:19;;;;;;;2.50;2.30;;;23.10;37.50;;;;;;5033201;28;20202;-24
2021/12/23 04:39:46;;;;;;;2.43;2.23;;;23.30;37.40;;;;;;5032691;28;20194;-24
2021/12/23 04:42:11;;;;;;;2.43;2.23;;;23.60;37.20;;;;;;5031954;28;20208;-22
2021/12/23 04:44:37;;;;;;;2.80;2.57;;;23.60;36.90;;;;;;5031075;28;20464;-24
2021/12/23 04:47:04;;;;;;;2.47;2.27;;;23.70;37.00;;;;;;5030958;28;20231;-21
2021/12/23 04:49:30;;;;;;;2.60;2.33;;;23.70;37.00;;;;;;5031821;28;20216;-25
2021/12/23 04:51:55;;;;;;;2.50;2.30;;;23.90;36.90;;;;;;5031368;28;20205;-23
2021/12/23 04:54:21;;;;;;;2.87;2.60;;;23.90;36.90;;;;;;5033923;28;20207;-22
2021/12/23 04:56:46;;;;;;;3.00;2.40;;;24.10;36.70;;;;;;5032808;28;20283;-23
2021/12/23 04:59:12;;;;;;;2.50;2.30;;;24.20;36.60;;;;;;5034242;28;20192;-23
2021/12/23 05:01:38;;;;;;;3.40;2.60;;;24.30;36.60;;;;;;5033217;28;20200;-24
2021/12/23 05:04:04;;;;;;;2.47;2.27;;;24.10;36.60;;;;;;5032538;28;20291;-22
2021/12/23 05:06:30;;;;;;;2.40;2.20;;;24.00;36.70;;;;;;5031352;28;20197;-24
2021/12/23 05:08:56;;;;;;;2.70;2.50;;;23.70;36.80;;;;;;5031272;28;20297;-24
2021/12/23 05:11:21;;;;;;;2.67;2.17;;;23.40;37.00;;;;;;5031725;28;20448;-24
2021/12/23 05:13:47;;;;;;;2.53;2.33;;;23.20;37.30;;;;;;5031588;28;20204;-23
2021/12/23 05:16:17;;;;;;;2.50;2.30;;;22.90;37.50;;;;;;5032363;28;20188;-24
2021/12/23 05:18:44;;;;;;;3.07;2.60;;;22.60;37.80;;;;;;5032394;28;20207;-21
2021/12/23 05:21:09;;;;;;;2.37;2.10;;;22.30;38.10;;;;;;5031253;28;20303;-22
2021/12/23 05:23:35;;;;;;;2.53;2.33;;;22.10;38.40;;;;;;5032901;28;20283;-23
2021/12/23 05:26:01;;;;;;;2.40;2.20;;;21.70;38.70;;;;;;5031229;28;20596;-24
2021/12/23 05:28:27;;;;;;;2.47;2.27;;;21.50;39.00;;;;;;5031364;28;20247;-26
2021/12/23 05:30:52;;;;;;;2.40;2.20;;;21.20;39.30;;;;;;5031037;28;20508;-23
2021/12/23 05:33:18;;;;;;;2.67;2.47;;;20.90;39.60;;;;;;5030961;28;20202;-27
2021/12/23 05:35:44;;;;;;;2.67;2.30;;;20.50;39.80;;;;;;5034862;28;20201;-23
2021/12/23 05:38:09;;;;;;;3.00;2.53;;;20.20;40.20;;;;;;5034321;28;20532;-22
2021/12/23 05:40:35;;;;;;;2.70;2.50;;;20.00;40.40;;;;;;5035552;28;20200;-23
2021/12/23 05:43:03;;;;;;;2.93;2.63;;;19.80;40.70;;;;;;5034405;28;20199;-26
2021/12/23 05:45:29;;;;;;;2.60;2.33;;;19.90;40.60;;;;;;5034555;28;20236;-23
2021/12/23 05:47:55;;;;;;;3.03;2.70;;;20.10;40.40;;;;;;5034565;28;20203;-23
2021/12/23 05:50:23;;;;;;;3.00;2.67;;;20.50;39.90;;;;;;5032766;28;20198;-24
2021/12/23 05:52:50;;;;;;;3.07;2.77;;;21.70;39.20;;;;;;5031043;28;20350;-23
2021/12/23 05:55:17;;;;;;;2.70;2.50;;;22.80;38.10;;;;;;5033487;28;20193;-25
2021/12/23 05:57:43;;;;;;;3.00;2.80;;;23.60;37.10;;;;;;5032861;28;20195;-24
2021/12/23 06:00:24;;;;;;;3.00;2.70;;;24.10;36.50;;;;;;5033028;28;20190;-23
2021/12/23 06:02:50;;;;;;;3.40;3.10;;;23.70;36.40;;;;;;5033922;28;20201;-22
2021/12/23 06:05:17;;;;;;;3.43;2.80;;;23.30;36.60;;;;;;5032992;28;20195;-25
2021/12/23 06:07:42;;;;;;;3.67;3.10;;;23.30;37.10;;;;;;5032831;28;20203;-22
2021/12/23 06:10:09;;;;;;;4.67;3.43;;;23.30;37.00;;;;;;5032291;28;20632;-24
2021/12/23 06:12:35;;;;;;;3.50;3.20;;;23.10;36.70;;;;;;5032170;28;20358;-22
2021/12/23 06:15:01;;;;;;;4.07;3.57;;;23.00;36.90;;;;;;5030731;28;20258;-24
2021/12/23 06:17:27;;;;;;;4.13;3.10;;;22.70;37.10;;;;;;5030214;28;20193;-24
2021/12/23 06:19:53;;;;;;;4.07;3.60;;;22.50;37.20;;;;;;5031955;28;20452;-22
2021/12/23 06:22:19;;;;;;;4.17;3.40;;;22.30;37.60;;;;;;5022268;28;20503;-23
2021/12/23 06:24:47;;;;;;;3.93;3.53;;;22.00;37.70;;;;;;5036822;28;20186;-22
2021/12/23 06:27:17;;;;;;;3.53;3.20;;;21.80;37.80;;;;;;5037465;28;20278;-23
2021/12/23 06:29:43;;;;;;;3.60;3.27;;;21.50;38.20;;;;;;5036797;28;20216;-23
2021/12/23 06:32:09;;;;;;;5.67;3.30;;;21.30;38.50;;;;;;5035110;28;20492;-23
2021/12/23 06:34:35;;;;;;;3.97;3.30;;;20.90;38.80;;;;;;5035599;28;20227;-24
2021/12/23 06:37:01;;;;;;;4.57;3.93;;;20.70;39.10;;;;;;5036310;28;20303;-22
2021/12/23 06:39:27;;;;;;;6.47;3.13;;;20.50;39.20;;;;;;5037057;28;20651;-25
2021/12/23 06:41:53;;;;;;;4.27;3.30;;;20.30;39.70;;;;;;5036274;28;20198;-24
2021/12/23 06:44:20;;;;;;;4.73;3.30;;;20.20;40.00;;;;;;5035927;28;20261;-24
2021/12/23 06:46:46;;;;;;;3.80;3.20;;;20.00;40.10;;;;;;5035716;28;20194;-22
2021/12/23 06:49:12;;;;;;;5.23;3.30;;;19.80;40.40;;;;;;5035152;28;20300;-25
2021/12/23 06:51:37;;;;;;;3.70;2.77;;;19.70;40.40;;;;;;5022335;28;20210;-23
2021/12/23 06:54:04;;;;;;;3.93;2.80;;;19.60;40.80;;;;;;5016252;28;20186;-22
2021/12/23 06:56:29;;;;;;;3.57;2.90;;;19.90;40.70;;;;;;5016678;28;20198;-24
2021/12/23 06:58:55;;;;;;;4.03;3.10;;;20.20;40.30;;;;;;5014942;28;20283;-26
2021/12/23 07:01:21;;;;;;;4.53;3.00;;;21.00;39.80;;;;;;5015988;28;20244;-29
2021/12/23 07:04:05;;;;;;;4.40;3.03;;;22.10;39.00;;;;;;5015262;28;20186;-26
2021/12/23 07:06:35;;;;;;;4.03;2.40;;;22.90;38.10;;;;;;5020639;28;20331;-26
2021/12/23 07:09:04;;;;;;;5.30;3.13;;;23.70;37.30;;;;;;5025389;28;20248;-26
2021/12/23 07:11:31;;;;;;;3.60;2.93;;;24.00;37.00;;;;;;5015786;28;20193;-28
2021/12/23 07:13:56;;;;;;;3.60;2.50;;;24.00;36.90;;;;;;5016850;28;20215;-27
2021/12/23 07:16:22;;;;;;;5.93;2.53;;;23.90;37.00;;;;;;5014409;28;20471;-26
2021/12/23 07:18:49;;;;;;;4.80;2.70;;;23.70;37.10;;;;;;5014351;28;20170;-27
2021/12/23 07:21:15;;;;;;;4.37;2.80;;;23.80;37.30;;;;;;5014736;28;20195;-26
2021/12/23 07:23:41;;;;;;;7.80;3.00;;;23.70;37.40;;;;;;5013224;28;20468;-27
2021/12/23 07:26:07;;;;;;;4.17;2.80;;;23.70;37.30;;;;;;5014616;28;20219;-28
2021/12/23 07:28:33;;;;;;;4.63;2.70;;;23.70;37.40;;;;;;5023477;28;20225;-28
2021/12/23 07:30:59;;;;;;;4.40;2.83;;;23.50;37.60;;;;;;5013610;28;20201;-25
2021/12/23 07:33:25;;;;;;;3.67;2.60;;;23.50;37.60;;;;;;5037776;28;20185;-29
2021/12/23 07:35:51;;;;;;;4.43;2.97;;;23.30;37.90;;;;;;5031794;28;20204;-26
2021/12/23 07:38:17;;;;;;;3.43;2.47;;;23.20;38.20;;;;;;5035542;28;20196;-22
2021/12/23 07:40:43;;;;;;;5.20;2.90;;;23.10;38.40;;;;;;5035745;28;20216;-24
2021/12/23 07:43:10;;;;;;;2.80;2.30;;;22.60;38.70;;;;;;5031466;28;20585;-24
2021/12/23 07:45:38;;;;;;;4.43;2.70;;;22.50;39.20;;;;;;5031904;28;20192;-24
2021/12/23 07:48:04;;;;;;;5.63;2.60;;;22.10;39.40;;;;;;5030160;28;20182;-24
2021/12/23 07:50:30;;;;;;;4.40;2.87;;;21.80;39.80;;;;;;5030084;28;20566;-24
2021/12/23 07:52:55;;;;;;;5.17;2.83;;;21.50;40.10;;;;;;5045756;28;20306;-26
2021/12/23 07:55:21;;;;;;;8.17;2.63;;;21.40;40.40;;;;;;5045532;28;20195;-24
2021/12/23 07:57:48;;;;;;;3.53;3.00;;;21.10;40.60;;;;;;5029515;28;20280;-25
2021/12/23 08:00:15;;;;;;;4.10;3.00;;;20.70;40.80;;;;;;5030939;28;20204;-25
2021/12/23 08:02:41;;;;;;;7.50;3.00;;;20.50;41.10;;;;;;5045217;28;20617;-22
2021/12/23 08:05:07;;;;;;;6.37;3.43;;;20.30;41.20;;;;;;5028405;28;20203;-23
2021/12/23 08:07:33;;;;;;;7.63;3.30;;;20.10;41.30;;;;;;5028850;28;20198;-24
2021/12/23 08:09:59;;;;;;;5.67;3.73;;;20.20;41.40;;;;;;5044883;28;20529;-23
2021/12/23 08:12:25;;;;;;;5.60;4.00;;;20.60;41.00;;;;;;5027265;28;20224;-23
2021/12/23 08:14:50;;;;;;;8.30;3.93;;;21.00;40.60;;;;;;5028164;28;20200;-24
2021/12/23 08:17:16;;;;;;;7.23;3.50;;;21.60;40.10;;;;;;5042692;28;20250;-25
2021/12/23 08:19:41;;;;;;;9.83;4.27;;;22.30;39.40;;;;;;5029230;28;20266;-24
2021/12/23 08:22:08;;;;;;;5.57;3.13;;;22.90;38.70;;;;;;5028333;28;20197;-23
2021/12/23 08:24:34;;;;;;;6.57;3.57;;;23.20;38.20;;;;;;5029692;28;20199;-22
2021/12/23 08:27:00;;;;;;;6.17;3.50;;;23.30;37.90;;;;;;5028887;28;20539;-23
2021/12/23 08:29:27;;;;;;;5.37;3.13;;;23.80;37.60;;;;;;5028662;28;20628;-24
2021/12/23 08:31:53;;;;;;;6.57;4.17;;;24.20;37.10;;;;;;5027307;28;20200;-24
2021/12/23 08:34:28;;;;;;;7.57;3.80;;;24.20;36.90;;;;;;5029028;28;20222;-23
2021/12/23 08:36:54;;;;;;;6.03;4.13;;;24.00;36.90;;;;;;5043325;28;20257;-26
2021/12/23 08:39:20;;;;;;;5.63;4.17;;;23.80;37.00;;;;;;5044349;28;20208;-25
2021/12/23 08:41:47;;;;;;;7.33;4.53;;;23.70;37.00;;;;;;5029262;28;20203;-26
2021/12/23 08:44:13;;;;;;;8.07;4.40;;;23.60;37.00;;;;;;5029107;28;20524;-24
2021/12/23 08:46:39;;;;;;;6.73;4.27;;;23.50;36.90;;;;;;5030218;28;20642;-24
2021/12/23 08:49:05;;;;;;;5.50;4.00;;;23.30;37.00;;;;;;5032186;28;20216;-25
2021/12/23 08:51:35;;;;;;;6.00;4.40;;;22.90;37.20;;;;;;5034459;28;20250;-24
2021/12/23 08:54:01;;;;;;;8.37;4.83;;;22.80;37.40;;;;;;5032318;28;20472;-24
2021/12/23 08:56:27;;;;;;;6.50;4.40;;;22.40;37.60;;;;;;5028172;28;20176;-26
2021/12/23 08:58:53;;;;;;;5.13;4.40;;;22.10;37.70;;;;;;5027800;28;20203;-23
2021/12/23 09:01:19;;;;;;;5.23;4.17;;;21.70;38.10;;;;;;5027442;28;20195;-23
2021/12/23 09:03:45;;;;;;;4.60;4.10;;;21.40;38.50;;;;;;5028320;28;20292;-25
2021/12/23 09:06:10;;;;;;;4.53;4.00;;;21.20;38.90;;;;;;5043497;28;20293;-25
2021/12/23 09:08:36;;;;;;;6.60;4.33;;;20.90;39.20;;;;;;5029485;28;20487;-24
2021/12/23 09:11:03;;;;;;;6.20;4.10;;;20.70;39.40;;;;;;5030729;28;20310;-24
2021/12/23 09:13:30;;;;;;;4.57;3.90;;;20.50;39.70;;;;;;5031463;28;20303;-23
2021/12/23 09:15:55;;;;;;;6.80;3.70;;;20.30;40.00;;;;;;5031901;28;20630;-24
2021/12/23 09:18:22;;;;;;;5.23;3.80;;;20.10;40.20;;;;;;5030686;28;20202;-23
2021/12/23 09:20:49;;;;;;;6.70;3.87;;;20.00;40.50;;;;;;5023652;28;20207;-26
2021/12/23 09:23:15;;;;;;;5.53;3.50;;;19.80;40.60;;;;;;5010710;28;20199;-23
2021/12/23 09:25:41;;;;;;;5.33;3.70;;;19.70;40.80;;;;;;5011054;28;20545;-22
2021/12/23 09:33:25;;;;;;;4.50;3.27;;;20.50;40.40;;;;;;5011746;28;20226;-23
2021/12/23 09:35:50;;;;;;;5.63;3.60;;;21.50;39.70;;;;;;5011471;28;20206;-24
2021/12/23 09:38:17;;;;;;;4.30;3.60;;;22.70;38.60;;;;;;5012455;28;20208;-25
2021/12/23 09:40:43;;;;;;;4.07;3.67;;;23.40;37.70;;;;;;5016235;28;20192;-24
2021/12/23 09:43:12;;;;;;;3.73;3.33;;;23.70;37.30;;;;;;5019901;28;20255;-25
2021/12/23 09:45:41;;;;;;;4.00;3.60;;;23.80;37.00;;;;;;5032721;28;20749;-22
2021/12/23 09:48:07;;;;;;;3.73;3.40;;;24.10;36.80;;;;;;5037025;28;20188;-24
2021/12/23 09:50:41;;;;;;;5.23;3.80;;;24.20;36.70;;;;;;5031101;28;20827;-26
2021/12/23 09:53:07;;;;;;;5.33;3.70;;;24.20;36.60;;;;;;5028698;28;20198;-26
2021/12/23 09:55:36;;;;;;;3.97;3.57;;;24.10;36.70;;;;;;5030096;28;20203;-25
2021/12/23 09:58:02;;;;;;;3.90;3.50;;;24.00;36.80;;;;;;5027655;28;20201;-24
2021/12/23 10:00:32;;;;;;;4.43;3.50;;;23.80;36.90;;;;;;5031103;28;20205;-25
2021/12/23 10:02:58;;;;;;;5.47;3.47;;;23.60;37.10;;;;;;5030650;28;20189;-26
2021/12/23 10:05:27;;;;;;;4.63;3.20;;;23.30;37.30;;;;;;5031086;28;20176;-24
2021/12/23 10:07:55;;;;;;;3.63;3.23;;;23.20;37.50;;;;;;5029868;28;20295;-25
2021/12/23 10:10:28;;;;;;;3.87;3.37;;;23.00;37.70;;;;;;5029859;28;20201;-24
2021/12/23 10:32:19;;;;;;;3.80;2.93;;;20.80;39.90;;;;;;5028383;28;20260;-24
2021/12/23 10:37:19;;;;;;;4.10;3.43;;;20.40;40.40;;;;;;5026848;28;20199;-24
2021/12/23 10:39:52;;;;;;;4.03;3.30;;;20.20;40.60;;;;;;5026960;28;20208;-23
2021/12/23 10:42:20;;;;;;;3.07;2.77;;;20.10;40.80;;;;;;5026620;28;20239;-24
2021/12/23 10:45:06;;;;;;;3.50;3.20;;;20.10;41.30;;;;;;5026604;28;20214;-25
2021/12/23 10:47:56;;;;;;;4.13;3.50;;;20.30;40.80;;;;;;5027623;28;20193;-24
2021/12/23 10:50:46;;;;;;;3.77;3.23;;;21.00;40.20;;;;;;5028485;28;20207;-25
2021/12/23 10:53:45;;;;;;;3.47;2.93;;;22.10;39.40;;;;;;5027984;28;20286;-22
2021/12/23 10:59:14;;;;;;;3.90;3.50;;;23.70;37.30;;;;;;5027500;28;20521;-24
2021/12/23 11:02:12;;;;;;;3.50;3.20;;;23.70;37.20;;;;;;5025876;28;20265;-25
2021/12/23 11:05:07;;;;;;;4.30;3.40;;;23.90;37.10;;;;;;5027750;28;20193;-26
2021/12/23 11:08:16;;;;;;;3.80;3.40;;;23.90;36.90;;;;;;5026511;28;20196;-22
2021/12/23 11:41:17;;;;;;;3.53;3.20;;;21.10;39.30;;;;;;5026206;28;20278;-25
2021/12/23 11:43:54;;;;;;;4.33;3.13;;;20.80;39.60;;;;;;5028439;28;20307;-22
2021/12/23 11:46:27;;;;;;;3.47;3.10;;;20.60;39.90;;;;;;5026581;28;20367;-25
2021/12/23 11:48:55;;;;;;;3.90;3.50;;;20.40;40.20;;;;;;5023374;28;20615;-22
2021/12/23 11:51:42;;;;;;;4.07;3.27;;;20.20;40.40;;;;;;5027511;28;20206;-23
2021/12/23 11:54:11;;;;;;;2.93;2.63;;;20.00;40.50;;;;;;5027087;28;20271;-25
2021/12/23 11:56:43;;;;;;;3.23;2.93;;;19.90;40.80;;;;;;5026998;28;20200;-24
2021/12/23 11:59:12;;;;;;;3.73;3.17;;;19.90;40.90;;;;;;5027683;28;20336;-25
2021/12/23 12:01:44;;;;;;;3.83;2.70;;;20.00;40.90;;;;;;5027703;28;20197;-25
2021/12/23 12:04:20;;;;;;;3.63;3.00;;;20.40;40.70;;;;;;5025813;28;20248;-26
2021/12/23 12:06:50;;;;;;;3.50;2.90;;;20.90;40.20;;;;;;5027105;28;20222;-23
2021/12/23 12:09:26;;;;;;;3.70;3.00;;;22.00;39.40;;;;;;5026030;28;20607;-24
2021/12/23 12:12:09;;;;;;;3.20;2.90;;;23.20;38.40;;;;;;5025543;28;20192;-24
2021/12/23 12:14:41;;;;;;;3.50;2.90;;;23.90;37.40;;;;;;5027114;28;20269;-24
2021/12/23 12:17:25;;;;;;;3.40;2.70;;;23.80;37.00;;;;;;5027635;28;20192;-22
2021/12/23 12:19:57;;;;;;;3.20;2.80;;;23.70;37.20;;;;;;5026911;28;20223;-24
2021/12/23 12:22:45;;;;;;;3.77;3.20;;;23.50;37.30;;;;;;5026963;28;20203;-26
2021/12/23 12:25:26;;;;;;;4.03;2.90;;;23.50;37.50;;;;;;5026282;28;20265;-26
2021/12/23 12:27:57;;;;;;;3.37;2.77;;;23.40;37.50;;;;;;5027063;28;20596;-23
2021/12/23 12:30:46;;;;;;;3.23;2.90;;;23.50;37.50;;;;;;5026633;28;20234;-24
2021/12/23 12:33:16;;;;;;;3.37;2.53;;;23.40;37.50;;;;;;5025726;28;20185;-25
2021/12/23 12:35:44;;;;;;;3.07;2.77;;;23.30;37.60;;;;;;5025300;28;20743;-24
2021/12/23 12:38:18;;;;;;;3.70;2.70;;;23.20;37.70;;;;;;5026373;28;20246;-24
2021/12/23 12:40:59;;;;;;;3.37;2.90;;;23.00;37.80;;;;;;5027574;28;20246;-24
2021/12/23 12:43:42;;;;;;;3.07;2.77;;;22.70;38.10;;;;;;5026811;28;20264;-24
2021/12/23 12:46:12;;;;;;;3.67;3.27;;;22.40;38.30;;;;;;5028555;28;20192;-26
2021/12/23 12:48:59;;;;;;;3.63;3.00;;;22.10;38.60;;;;;;5037898;28;20211;-27
2021/12/23 12:51:35;;;;;;;3.30;2.97;;;21.90;38.80;;;;;;5037148;28;20303;-25
2021/12/23 12:54:08;;;;;;;3.40;2.90;;;21.50;39.10;;;;;;5036260;28;20183;-26
2021/12/23 12:56:47;;;;;;;3.43;3.13;;;21.40;39.40;;;;;;5028473;28;20465;-24
2021/12/23 12:59:14;;;;;;;3.43;2.90;;;21.10;39.70;;;;;;5024283;28;20585;-24
2021/12/23 13:01:43;;;;;;;2.80;2.47;;;20.90;40.00;;;;;;5028876;28;20700;-23
2021/12/23 13:04:40;;;;;;;3.87;2.87;;;20.60;40.30;;;;;;5029315;28;20435;-22
2021/12/23 13:07:28;;;;;;;2.80;2.37;;;20.50;40.70;;;;;;5028035;28;20216;-25
2021/12/23 13:10:21;;;;;;;2.60;2.40;;;20.20;40.80;;;;;;5027945;28;20208;-24
2021/12/23 13:13:00;;;;;;;4.10;2.97;;;20.10;41.10;;;;;;5028438;28;20198;-23
2021/12/23 13:15:28;;;;;;;3.27;2.70;;;20.10;41.20;;;;;;5029307;28;20201;-25
2021/12/23 13:18:18;;;;;;;3.60;3.10;;;20.20;41.10;;;;;;5029888;28;20256;-25
2021/12/23 13:20:51;;;;;;;4.03;3.07;;;20.40;40.80;;;;;;5029726;28;20482;-23
2021/12/23 13:23:29;;;;;;;2.90;2.63;;;20.90;40.40;;;;;;5029200;28;20195;-22
2021/12/23 13:25:56;;;;;;;3.30;2.87;;;21.70;39.80;;;;;;5028485;28;20208;-24
2021/12/23 13:28:27;;;;;;;2.83;2.63;;;22.60;38.90;;;;;;5028589;28;20200;-22
2021/12/23 13:30:53;;;;;;;4.47;2.77;;;23.20;38.20;;;;;;5030008;28;20203;-21
2021/12/23 13:33:20;;;;;;;3.63;3.00;;;23.70;37.80;;;;;;5028337;28;20206;-25
2021/12/23 13:35:46;;;;;;;3.93;2.70;;;24.10;37.50;;;;;;5027967;28;20230;-23
2021/12/23 13:38:42;;;;;;;4.00;2.60;;;24.30;37.40;;;;;;5029815;28;20188;-24
2021/12/23 13:41:13;;;;;;;4.27;2.90;;;24.20;37.40;;;;;;5012578;28;20309;-24
2021/12/23 13:43:39;;;;;;;7.97;3.10;;;24.00;37.90;;;;;;5028358;28;20453;-23
2021/12/23 13:46:07;;;;;;;6.70;3.20;;;24.00;38.10;;;;;;5026956;28;20185;-23
2021/12/23 13:48:48;;;;;;;6.07;3.30;;;24.00;38.00;;;;;;5027773;28;20460;-23
2021/12/23 13:51:15;;;;;;;9.03;3.67;;;23.70;37.90;;;;;;5029777;28;20549;-26
2021/12/23 13:53:41;;;;;;;6.10;3.37;;;23.40;37.90;;;;;;5029321;28;20283;-24
2021/12/23 13:56:14;;;;;;;6.27;3.40;;;23.10;38.30;;;;;;5029512;28;20430;-26
2021/12/23 13:58:40;;;;;;;5.60;3.40;;;22.80;38.50;;;;;;5029569;28;20584;-24
2021/12/23 14:01:06;;;;;;;4.13;3.30;;;22.50;38.80;;;;;;5029237;28;20187;-25
2021/12/23 14:03:31;;;;;;;7.40;3.60;;;22.40;38.90;;;;;;5029135;28;20356;-26